sensor_id;sensor_type;location;lat;lon;timestamp;P1;durP1;ratioP1;P2;durP2;ratioP2
3589;SDS011;1809;48.470;9.226;2024-03-08T00:01:39;34.17;;;17.90;;
3589;SDS011;1809;48.470;9.226;2024-03-08T00:04:04;30.90;;;17.20;;
3589;SDS011;1809;48.470;9.226;2024-03-08T00:06:31;31.13;;;17.07;;
3589;SDS011;1809;48.470;9.226;2024-03-08T00:08:56;31.37;;;18.20;;
3589;SDS011;1809;48.470;9.226;2024-03-08T00:11:22;31.33;;;18.17;;
3589;SDS011;1809;48.470;9.226;2024-03-08T00:13:50;36.77;;;18.40;;
3589;SDS011;1809;48.470;9.226;2024-03-08T00:16:17;32.93;;;19.50;;
3589;SDS011;1809;48.470;9.226;2024-03-08T00:18:44;32.63;;;17.30;;
3589;SDS011;1809;48.470;9.226;2024-03-08T00:21:09;34.40;;;17.97;;
3589;SDS011;1809;48.470;9.226;2024-03-08T00:23:36;34.73;;;18.90;;
3589;SDS011;1809;48.470;9.226;2024-03-08T00:26:02;34.60;;;19.30;;
3589;SDS011;1809;48.470;9.226;2024-03-08T00:28:29;38.50;;;18.40;;
3589;SDS011;1809;48.470;9.226;2024-03-08T00:30:55;30.60;;;17.43;;
3589;SDS011;1809;48.470;9.226;2024-03-08T00:33:21;33.77;;;17.13;;
3589;SDS011;1809;48.470;9.226;2024-03-08T00:35:46;31.73;;;17.93;;
3589;SDS011;1809;48.470;9.226;2024-03-08T00:38:12;33.03;;;17.13;;
3589;SDS011;1809;48.470;9.226;2024-03-08T00:40:38;27.83;;;17.20;;
3589;SDS011;1809;48.470;9.226;2024-03-08T00:43:03;32.67;;;17.23;;
3589;SDS011;1809;48.470;9.226;2024-03-08T00:45:29;33.03;;;18.53;;
3589;SDS011;1809;48.470;9.226;2024-03-08T00:47:54;32.30;;;17.47;;
3589;SDS011;1809;48.470;9.226;2024-03-08T00:50:20;31.67;;;17.23;;
3589;SDS011;1809;48.470;9.226;2024-03-08T00:52:45;34.07;;;18.40;;
3589;SDS011;1809;48.470;9.226;2024-03-08T00:55:11;27.93;;;16.77;;
3589;SDS011;1809;48.470;9.226;2024-03-08T00:57:37;33.50;;;18.43;;
3589;SDS011;1809;48.470;9.226;2024-03-08T01:00:04;29.27;;;16.70;;
3589;SDS011;1809;48.470;9.226;2024-03-08T01:02:34;34.67;;;16.47;;
3589;SDS011;1809;48.470;9.226;2024-03-08T01:05:00;33.47;;;17.17;;
3589;SDS011;1809;48.470;9.226;2024-03-08T01:07:26;29.07;;;15.20;;
3589;SDS011;1809;48.470;9.226;2024-03-08T01:09:51;29.03;;;16.97;;
3589;SDS011;1809;48.470;9.226;2024-03-08T01:12:16;36.53;;;16.70;;
3589;SDS011;1809;48.470;9.226;2024-03-08T01:14:42;27.50;;;14.40;;
3589;SDS011;1809;48.470;9.226;2024-03-08T01:17:07;32.07;;;15.80;;
3589;SDS011;1809;48.470;9.226;2024-03-08T01:19:34;28.70;;;15.33;;
3589;SDS011;1809;48.470;9.226;2024-03-08T01:22:00;30.87;;;17.00;;
3589;SDS011;1809;48.470;9.226;2024-03-08T01:24:25;29.20;;;16.27;;
3589;SDS011;1809;48.470;9.226;2024-03-08T01:26:50;29.17;;;16.77;;
3589;SDS011;1809;48.470;9.226;2024-03-08T01:29:16;31.33;;;17.57;;
3589;SDS011;1809;48.470;9.226;2024-03-08T01:31:41;27.93;;;16.73;;
3589;SDS011;1809;48.470;9.226;2024-03-08T01:34:06;33.27;;;17.33;;
3589;SDS011;1809;48.470;9.226;2024-03-08T01:36:32;28.93;;;16.50;;
3589;SDS011;1809;48.470;9.226;2024-03-08T01:38:57;29.07;;;16.23;;
3589;SDS011;1809;48.470;9.226;2024-03-08T01:41:22;30.77;;;17.00;;
3589;SDS011;1809;48.470;9.226;2024-03-08T01:43:48;28.97;;;16.30;;
3589;SDS011;1809;48.470;9.226;2024-03-08T01:46:15;33.23;;;15.63;;
3589;SDS011;1809;48.470;9.226;2024-03-08T01:48:44;27.90;;;15.10;;
3589;SDS011;1809;48.470;9.226;2024-03-08T01:51:10;30.77;;;16.07;;
3589;SDS011;1809;48.470;9.226;2024-03-08T01:53:36;29.00;;;16.20;;
3589;SDS011;1809;48.470;9.226;2024-03-08T01:56:02;32.60;;;17.53;;
3589;SDS011;1809;48.470;9.226;2024-03-08T01:58:29;27.50;;;15.27;;
3589;SDS011;1809;48.470;9.226;2024-03-08T02:00:56;28.57;;;16.20;;
3589;SDS011;1809;48.470;9.226;2024-03-08T02:03:23;27.57;;;15.90;;
3589;SDS011;1809;48.470;9.226;2024-03-08T02:05:48;27.83;;;16.60;;
3589;SDS011;1809;48.470;9.226;2024-03-08T02:08:14;30.93;;;17.50;;
3589;SDS011;1809;48.470;9.226;2024-03-08T02:10:39;33.13;;;17.20;;
3589;SDS011;1809;48.470;9.226;2024-03-08T02:13:11;34.40;;;16.87;;
3589;SDS011;1809;48.470;9.226;2024-03-08T02:18:20;32.13;;;17.40;;
3589;SDS011;1809;48.470;9.226;2024-03-08T02:20:49;38.90;;;16.70;;
3589;SDS011;1809;48.470;9.226;2024-03-08T02:23:15;32.53;;;16.50;;
3589;SDS011;1809;48.470;9.226;2024-03-08T02:25:41;31.60;;;17.17;;
3589;SDS011;1809;48.470;9.226;2024-03-08T02:28:08;34.37;;;16.97;;
3589;SDS011;1809;48.470;9.226;2024-03-08T02:30:35;32.00;;;16.53;;
3589;SDS011;1809;48.470;9.226;2024-03-08T02:33:00;28.97;;;16.80;;
3589;SDS011;1809;48.470;9.226;2024-03-08T02:35:26;29.00;;;16.80;;
3589;SDS011;1809;48.470;9.226;2024-03-08T02:37:51;26.17;;;15.83;;
3589;SDS011;1809;48.470;9.226;2024-03-08T02:40:16;34.30;;;17.77;;
3589;SDS011;1809;48.470;9.226;2024-03-08T02:42:42;32.37;;;18.80;;
3589;SDS011;1809;48.470;9.226;2024-03-08T02:45:08;31.00;;;15.90;;
3589;SDS011;1809;48.470;9.226;2024-03-08T02:47:35;31.67;;;17.50;;
3589;SDS011;1809;48.470;9.226;2024-03-08T02:50:00;28.77;;;17.70;;
3589;SDS011;1809;48.470;9.226;2024-03-08T02:52:26;33.73;;;18.03;;
3589;SDS011;1809;48.470;9.226;2024-03-08T02:54:51;36.37;;;18.33;;
3589;SDS011;1809;48.470;9.226;2024-03-08T02:57:17;35.10;;;17.90;;
3589;SDS011;1809;48.470;9.226;2024-03-08T02:59:43;38.13;;;19.33;;
3589;SDS011;1809;48.470;9.226;2024-03-08T03:02:08;31.73;;;16.80;;
3589;SDS011;1809;48.470;9.226;2024-03-08T03:04:35;33.40;;;17.67;;
3589;SDS011;1809;48.470;9.226;2024-03-08T03:07:00;34.27;;;19.10;;
3589;SDS011;1809;48.470;9.226;2024-03-08T03:09:26;32.20;;;16.40;;
3589;SDS011;1809;48.470;9.226;2024-03-08T03:11:55;30.93;;;16.73;;
3589;SDS011;1809;48.470;9.226;2024-03-08T03:14:21;30.27;;;17.30;;
3589;SDS011;1809;48.470;9.226;2024-03-08T03:16:47;33.33;;;17.73;;
3589;SDS011;1809;48.470;9.226;2024-03-08T03:19:12;33.57;;;18.17;;
3589;SDS011;1809;48.470;9.226;2024-03-08T03:21:38;30.57;;;17.60;;
3589;SDS011;1809;48.470;9.226;2024-03-08T03:24:03;28.80;;;17.40;;
3589;SDS011;1809;48.470;9.226;2024-03-08T03:26:34;28.20;;;16.37;;
3589;SDS011;1809;48.470;9.226;2024-03-08T03:29:02;35.77;;;18.13;;
3589;SDS011;1809;48.470;9.226;2024-03-08T03:31:28;30.93;;;17.00;;
3589;SDS011;1809;48.470;9.226;2024-03-08T03:33:53;34.33;;;18.00;;
3589;SDS011;1809;48.470;9.226;2024-03-08T03:36:19;35.90;;;18.87;;
3589;SDS011;1809;48.470;9.226;2024-03-08T03:38:45;33.17;;;18.67;;
3589;SDS011;1809;48.470;9.226;2024-03-08T03:41:10;29.30;;;17.60;;
3589;SDS011;1809;48.470;9.226;2024-03-08T03:43:38;34.30;;;17.50;;
3589;SDS011;1809;48.470;9.226;2024-03-08T03:46:07;33.90;;;18.50;;
3589;SDS011;1809;48.470;9.226;2024-03-08T03:48:33;34.90;;;17.53;;
3589;SDS011;1809;48.470;9.226;2024-03-08T03:50:58;33.30;;;19.20;;
3589;SDS011;1809;48.470;9.226;2024-03-08T03:53:23;33.90;;;17.47;;
3589;SDS011;1809;48.470;9.226;2024-03-08T03:55:51;35.30;;;18.97;;
3589;SDS011;1809;48.470;9.226;2024-03-08T03:58:16;34.63;;;19.30;;
3589;SDS011;1809;48.470;9.226;2024-03-08T04:00:47;34.90;;;17.60;;
3589;SDS011;1809;48.470;9.226;2024-03-08T04:03:12;38.47;;;19.63;;
3589;SDS011;1809;48.470;9.226;2024-03-08T04:05:38;30.30;;;16.53;;
3589;SDS011;1809;48.470;9.226;2024-03-08T04:08:04;38.57;;;19.13;;
3589;SDS011;1809;48.470;9.226;2024-03-08T04:10:29;36.70;;;20.40;;
3589;SDS011;1809;48.470;9.226;2024-03-08T04:12:55;42.30;;;19.67;;
3589;SDS011;1809;48.470;9.226;2024-03-08T04:15:21;34.23;;;17.90;;
3589;SDS011;1809;48.470;9.226;2024-03-08T04:17:48;41.03;;;18.67;;
3589;SDS011;1809;48.470;9.226;2024-03-08T04:20:13;39.70;;;19.87;;
3589;SDS011;1809;48.470;9.226;2024-03-08T04:22:39;39.23;;;19.43;;
3589;SDS011;1809;48.470;9.226;2024-03-08T04:25:05;33.30;;;19.10;;
3589;SDS011;1809;48.470;9.226;2024-03-08T04:27:35;31.03;;;17.80;;
3589;SDS011;1809;48.470;9.226;2024-03-08T04:30:01;35.20;;;18.13;;
3589;SDS011;1809;48.470;9.226;2024-03-08T04:32:27;34.47;;;18.60;;
3589;SDS011;1809;48.470;9.226;2024-03-08T04:34:54;32.13;;;17.53;;
3589;SDS011;1809;48.470;9.226;2024-03-08T04:37:20;35.73;;;18.90;;
3589;SDS011;1809;48.470;9.226;2024-03-08T04:39:48;36.37;;;18.80;;
3589;SDS011;1809;48.470;9.226;2024-03-08T04:42:14;35.50;;;19.10;;
3589;SDS011;1809;48.470;9.226;2024-03-08T04:44:40;37.30;;;19.00;;
3589;SDS011;1809;48.470;9.226;2024-03-08T04:47:06;34.20;;;19.00;;
3589;SDS011;1809;48.470;9.226;2024-03-08T04:49:32;36.67;;;18.80;;
3589;SDS011;1809;48.470;9.226;2024-03-08T04:52:00;34.80;;;18.10;;
3589;SDS011;1809;48.470;9.226;2024-03-08T04:54:27;38.80;;;19.30;;
3589;SDS011;1809;48.470;9.226;2024-03-08T04:56:53;33.57;;;18.90;;
3589;SDS011;1809;48.470;9.226;2024-03-08T04:59:18;33.20;;;17.90;;
3589;SDS011;1809;48.470;9.226;2024-03-08T05:01:44;32.40;;;16.57;;
3589;SDS011;1809;48.470;9.226;2024-03-08T05:04:09;32.83;;;17.50;;
3589;SDS011;1809;48.470;9.226;2024-03-08T05:06:34;36.33;;;19.03;;
3589;SDS011;1809;48.470;9.226;2024-03-08T05:09:01;34.73;;;17.80;;
3589;SDS011;1809;48.470;9.226;2024-03-08T05:11:38;40.10;;;19.83;;
3589;SDS011;1809;48.470;9.226;2024-03-08T05:14:04;35.40;;;17.63;;
3589;SDS011;1809;48.470;9.226;2024-03-08T05:16:29;33.03;;;17.17;;
3589;SDS011;1809;48.470;9.226;2024-03-08T05:18:55;33.33;;;17.17;;
3589;SDS011;1809;48.470;9.226;2024-03-08T05:21:21;32.93;;;18.50;;
3589;SDS011;1809;48.470;9.226;2024-03-08T05:23:47;31.33;;;17.40;;
3589;SDS011;1809;48.470;9.226;2024-03-08T05:26:12;34.40;;;17.73;;
3589;SDS011;1809;48.470;9.226;2024-03-08T05:28:39;33.93;;;18.00;;
3589;SDS011;1809;48.470;9.226;2024-03-08T05:31:04;31.90;;;18.37;;
3589;SDS011;1809;48.470;9.226;2024-03-08T05:33:30;35.60;;;18.60;;
3589;SDS011;1809;48.470;9.226;2024-03-08T05:35:55;31.30;;;17.03;;
3589;SDS011;1809;48.470;9.226;2024-03-08T05:38:20;34.20;;;18.37;;
3589;SDS011;1809;48.470;9.226;2024-03-08T05:40:46;38.67;;;19.50;;
3589;SDS011;1809;48.470;9.226;2024-03-08T05:43:11;37.63;;;18.23;;
3589;SDS011;1809;48.470;9.226;2024-03-08T05:45:37;33.10;;;19.20;;
3589;SDS011;1809;48.470;9.226;2024-03-08T05:48:02;35.57;;;18.60;;
3589;SDS011;1809;48.470;9.226;2024-03-08T05:50:28;30.47;;;17.33;;
3589;SDS011;1809;48.470;9.226;2024-03-08T05:52:53;31.60;;;16.83;;
3589;SDS011;1809;48.470;9.226;2024-03-08T05:55:19;33.10;;;18.10;;
3589;SDS011;1809;48.470;9.226;2024-03-08T05:57:44;37.87;;;19.83;;
3589;SDS011;1809;48.470;9.226;2024-03-08T06:00:10;36.73;;;18.40;;
3589;SDS011;1809;48.470;9.226;2024-03-08T06:02:36;32.50;;;17.40;;
3589;SDS011;1809;48.470;9.226;2024-03-08T06:05:05;32.10;;;17.83;;
3589;SDS011;1809;48.470;9.226;2024-03-08T06:07:40;30.97;;;17.07;;
3589;SDS011;1809;48.470;9.226;2024-03-08T06:10:06;35.83;;;17.97;;
3589;SDS011;1809;48.470;9.226;2024-03-08T06:12:36;33.07;;;17.93;;
3589;SDS011;1809;48.470;9.226;2024-03-08T06:15:08;34.50;;;18.00;;
3589;SDS011;1809;48.470;9.226;2024-03-08T06:17:34;36.27;;;18.77;;
3589;SDS011;1809;48.470;9.226;2024-03-08T06:20:01;35.00;;;17.53;;
3589;SDS011;1809;48.470;9.226;2024-03-08T06:22:26;35.47;;;18.60;;
3589;SDS011;1809;48.470;9.226;2024-03-08T06:24:52;35.27;;;17.27;;
3589;SDS011;1809;48.470;9.226;2024-03-08T06:27:19;35.93;;;17.53;;
3589;SDS011;1809;48.470;9.226;2024-03-08T06:29:44;32.27;;;17.63;;
3589;SDS011;1809;48.470;9.226;2024-03-08T06:32:10;33.23;;;17.50;;
3589;SDS011;1809;48.470;9.226;2024-03-08T06:34:35;37.80;;;17.97;;
3589;SDS011;1809;48.470;9.226;2024-03-08T06:37:00;30.10;;;17.10;;
3589;SDS011;1809;48.470;9.226;2024-03-08T06:39:26;34.70;;;18.20;;
3589;SDS011;1809;48.470;9.226;2024-03-08T06:41:53;28.27;;;16.57;;
3589;SDS011;1809;48.470;9.226;2024-03-08T06:44:19;30.20;;;17.13;;
3589;SDS011;1809;48.470;9.226;2024-03-08T06:46:46;38.97;;;18.93;;
3589;SDS011;1809;48.470;9.226;2024-03-08T06:49:13;33.07;;;17.30;;
3589;SDS011;1809;48.470;9.226;2024-03-08T06:51:38;33.77;;;17.90;;
3589;SDS011;1809;48.470;9.226;2024-03-08T06:54:06;33.00;;;16.83;;
3589;SDS011;1809;48.470;9.226;2024-03-08T06:56:33;33.20;;;17.77;;
3589;SDS011;1809;48.470;9.226;2024-03-08T06:58:59;33.50;;;16.60;;
3589;SDS011;1809;48.470;9.226;2024-03-08T07:01:24;32.43;;;17.33;;
3589;SDS011;1809;48.470;9.226;2024-03-08T07:03:50;34.80;;;16.27;;
3589;SDS011;1809;48.470;9.226;2024-03-08T07:06:17;27.93;;;15.77;;
3589;SDS011;1809;48.470;9.226;2024-03-08T07:08:44;34.43;;;16.80;;
3589;SDS011;1809;48.470;9.226;2024-03-08T07:11:11;33.10;;;16.40;;
3589;SDS011;1809;48.470;9.226;2024-03-08T07:13:37;31.43;;;16.30;;
3589;SDS011;1809;48.470;9.226;2024-03-08T07:16:03;64.00;;;17.97;;
3589;SDS011;1809;48.470;9.226;2024-03-08T07:18:30;27.83;;;15.67;;
3589;SDS011;1809;48.470;9.226;2024-03-08T07:20:55;31.97;;;16.80;;
3589;SDS011;1809;48.470;9.226;2024-03-08T07:23:21;32.53;;;16.83;;
3589;SDS011;1809;48.470;9.226;2024-03-08T07:26:05;27.13;;;15.30;;
3589;SDS011;1809;48.470;9.226;2024-03-08T07:28:30;30.87;;;17.57;;
3589;SDS011;1809;48.470;9.226;2024-03-08T07:30:56;34.43;;;16.93;;
3589;SDS011;1809;48.470;9.226;2024-03-08T07:33:45;35.60;;;16.87;;
3589;SDS011;1809;48.470;9.226;2024-03-08T07:36:11;35.63;;;18.03;;
3589;SDS011;1809;48.470;9.226;2024-03-08T07:38:36;37.53;;;17.70;;
3589;SDS011;1809;48.470;9.226;2024-03-08T07:41:01;31.13;;;17.00;;
3589;SDS011;1809;48.470;9.226;2024-03-08T07:43:27;29.53;;;16.70;;
3589;SDS011;1809;48.470;9.226;2024-03-08T07:45:52;32.43;;;16.70;;
3589;SDS011;1809;48.470;9.226;2024-03-08T07:48:20;32.47;;;17.93;;
3589;SDS011;1809;48.470;9.226;2024-03-08T07:50:46;34.10;;;17.13;;
3589;SDS011;1809;48.470;9.226;2024-03-08T07:53:11;28.70;;;17.30;;
3589;SDS011;1809;48.470;9.226;2024-03-08T07:55:37;29.30;;;16.40;;
3589;SDS011;1809;48.470;9.226;2024-03-08T07:58:02;27.67;;;15.40;;
3589;SDS011;1809;48.470;9.226;2024-03-08T08:00:28;33.43;;;18.07;;
3589;SDS011;1809;48.470;9.226;2024-03-08T08:02:56;28.80;;;16.30;;
3589;SDS011;1809;48.470;9.226;2024-03-08T08:05:21;25.77;;;15.87;;
3589;SDS011;1809;48.470;9.226;2024-03-08T08:07:46;35.20;;;16.60;;
3589;SDS011;1809;48.470;9.226;2024-03-08T08:10:12;30.30;;;17.17;;
3589;SDS011;1809;48.470;9.226;2024-03-08T08:12:46;27.30;;;15.83;;
3589;SDS011;1809;48.470;9.226;2024-03-08T08:15:12;29.33;;;16.70;;
3589;SDS011;1809;48.470;9.226;2024-03-08T08:17:38;23.63;;;14.63;;
3589;SDS011;1809;48.470;9.226;2024-03-08T08:20:04;29.93;;;15.87;;
3589;SDS011;1809;48.470;9.226;2024-03-08T08:22:30;28.13;;;15.20;;
3589;SDS011;1809;48.470;9.226;2024-03-08T08:24:56;25.30;;;13.50;;
3589;SDS011;1809;48.470;9.226;2024-03-08T08:27:21;27.93;;;16.00;;
3589;SDS011;1809;48.470;9.226;2024-03-08T08:29:46;25.00;;;15.50;;
3589;SDS011;1809;48.470;9.226;2024-03-08T08:32:12;22.80;;;14.80;;
3589;SDS011;1809;48.470;9.226;2024-03-08T08:34:38;25.97;;;16.20;;
3589;SDS011;1809;48.470;9.226;2024-03-08T08:37:03;30.80;;;15.23;;
3589;SDS011;1809;48.470;9.226;2024-03-08T08:39:28;27.87;;;16.60;;
3589;SDS011;1809;48.470;9.226;2024-03-08T08:41:54;27.03;;;15.20;;
3589;SDS011;1809;48.470;9.226;2024-03-08T08:44:19;26.57;;;16.00;;
3589;SDS011;1809;48.470;9.226;2024-03-08T08:46:45;31.40;;;15.60;;
3589;SDS011;1809;48.470;9.226;2024-03-08T08:49:10;26.00;;;16.03;;
3589;SDS011;1809;48.470;9.226;2024-03-08T08:51:39;26.00;;;16.10;;
3589;SDS011;1809;48.470;9.226;2024-03-08T08:54:04;25.90;;;14.37;;
3589;SDS011;1809;48.470;9.226;2024-03-08T08:56:31;24.97;;;14.37;;
3589;SDS011;1809;48.470;9.226;2024-03-08T08:58:57;23.67;;;13.60;;
3589;SDS011;1809;48.470;9.226;2024-03-08T09:01:23;25.63;;;14.87;;
3589;SDS011;1809;48.470;9.226;2024-03-08T09:03:48;28.87;;;15.70;;
3589;SDS011;1809;48.470;9.226;2024-03-08T09:06:15;28.70;;;15.03;;
3589;SDS011;1809;48.470;9.226;2024-03-08T09:08:41;26.73;;;16.27;;
3589;SDS011;1809;48.470;9.226;2024-03-08T09:11:06;23.77;;;15.33;;
3589;SDS011;1809;48.470;9.226;2024-03-08T09:13:32;28.57;;;15.80;;
3589;SDS011;1809;48.470;9.226;2024-03-08T09:15:58;24.43;;;14.30;;
3589;SDS011;1809;48.470;9.226;2024-03-08T09:18:24;25.50;;;15.30;;
3589;SDS011;1809;48.470;9.226;2024-03-08T09:20:50;22.77;;;14.80;;
3589;SDS011;1809;48.470;9.226;2024-03-08T09:23:16;24.13;;;14.83;;
3589;SDS011;1809;48.470;9.226;2024-03-08T09:25:44;24.83;;;14.30;;
3589;SDS011;1809;48.470;9.226;2024-03-08T09:28:10;23.37;;;14.40;;
3589;SDS011;1809;48.470;9.226;2024-03-08T09:30:37;25.83;;;15.40;;
3589;SDS011;1809;48.470;9.226;2024-03-08T09:33:05;22.83;;;14.67;;
3589;SDS011;1809;48.470;9.226;2024-03-08T09:35:31;22.60;;;14.00;;
3589;SDS011;1809;48.470;9.226;2024-03-08T09:37:57;26.33;;;14.87;;
3589;SDS011;1809;48.470;9.226;2024-03-08T09:40:22;22.40;;;13.23;;
3589;SDS011;1809;48.470;9.226;2024-03-08T09:42:49;24.77;;;14.70;;
3589;SDS011;1809;48.470;9.226;2024-03-08T09:45:14;21.97;;;13.83;;
3589;SDS011;1809;48.470;9.226;2024-03-08T09:47:42;25.10;;;14.90;;
3589;SDS011;1809;48.470;9.226;2024-03-08T09:50:09;25.17;;;14.10;;
3589;SDS011;1809;48.470;9.226;2024-03-08T09:52:37;27.80;;;15.30;;
3589;SDS011;1809;48.470;9.226;2024-03-08T09:55:07;29.03;;;16.40;;
3589;SDS011;1809;48.470;9.226;2024-03-08T09:57:36;28.13;;;16.03;;
3589;SDS011;1809;48.470;9.226;2024-03-08T10:00:02;25.87;;;14.23;;
3589;SDS011;1809;48.470;9.226;2024-03-08T10:02:44;25.80;;;14.90;;
3589;SDS011;1809;48.470;9.226;2024-03-08T10:05:10;24.50;;;14.50;;
3589;SDS011;1809;48.470;9.226;2024-03-08T10:07:37;22.83;;;14.87;;
3589;SDS011;1809;48.470;9.226;2024-03-08T10:10:03;28.03;;;16.07;;
3589;SDS011;1809;48.470;9.226;2024-03-08T10:12:28;21.13;;;14.10;;
3589;SDS011;1809;48.470;9.226;2024-03-08T10:14:58;26.63;;;15.03;;
3589;SDS011;1809;48.470;9.226;2024-03-08T10:17:23;24.30;;;13.70;;
3589;SDS011;1809;48.470;9.226;2024-03-08T10:19:49;21.53;;;14.60;;
3589;SDS011;1809;48.470;9.226;2024-03-08T10:22:16;25.83;;;14.50;;
3589;SDS011;1809;48.470;9.226;2024-03-08T10:24:44;25.97;;;15.43;;
3589;SDS011;1809;48.470;9.226;2024-03-08T10:27:10;28.10;;;15.53;;
3589;SDS011;1809;48.470;9.226;2024-03-08T10:29:36;25.80;;;14.13;;
3589;SDS011;1809;48.470;9.226;2024-03-08T10:32:02;28.33;;;15.90;;
3589;SDS011;1809;48.470;9.226;2024-03-08T10:34:30;29.40;;;16.93;;
3589;SDS011;1809;48.470;9.226;2024-03-08T10:36:56;27.27;;;15.43;;
3589;SDS011;1809;48.470;9.226;2024-03-08T10:39:28;26.60;;;15.67;;
3589;SDS011;1809;48.470;9.226;2024-03-08T10:42:00;24.70;;;13.97;;
3589;SDS011;1809;48.470;9.226;2024-03-08T10:49:41;28.90;;;16.13;;
3589;SDS011;1809;48.470;9.226;2024-03-08T10:52:29;23.20;;;14.13;;
3589;SDS011;1809;48.470;9.226;2024-03-08T10:54:54;29.07;;;15.50;;
3589;SDS011;1809;48.470;9.226;2024-03-08T10:57:21;32.23;;;16.50;;
3589;SDS011;1809;48.470;9.226;2024-03-08T10:59:48;27.00;;;15.60;;
3589;SDS011;1809;48.470;9.226;2024-03-08T11:02:15;27.97;;;14.73;;
3589;SDS011;1809;48.470;9.226;2024-03-08T11:04:50;24.43;;;15.97;;
3589;SDS011;1809;48.470;9.226;2024-03-08T11:07:16;27.83;;;15.13;;
3589;SDS011;1809;48.470;9.226;2024-03-08T11:09:43;25.23;;;14.53;;
3589;SDS011;1809;48.470;9.226;2024-03-08T11:14:46;29.20;;;14.80;;
3589;SDS011;1809;48.470;9.226;2024-03-08T11:17:15;29.30;;;16.97;;
3589;SDS011;1809;48.470;9.226;2024-03-08T11:19:49;28.17;;;15.80;;
3589;SDS011;1809;48.470;9.226;2024-03-08T11:22:20;27.43;;;15.60;;
3589;SDS011;1809;48.470;9.226;2024-03-08T11:24:53;31.00;;;16.70;;
3589;SDS011;1809;48.470;9.226;2024-03-08T11:27:28;25.83;;;15.70;;
3589;SDS011;1809;48.470;9.226;2024-03-08T11:30:01;25.87;;;16.57;;
3589;SDS011;1809;48.470;9.226;2024-03-08T11:32:43;24.23;;;15.17;;
3589;SDS011;1809;48.470;9.226;2024-03-08T11:35:18;25.70;;;15.80;;
3589;SDS011;1809;48.470;9.226;2024-03-08T11:37:45;25.23;;;15.67;;
3589;SDS011;1809;48.470;9.226;2024-03-08T11:40:13;23.47;;;14.13;;
3589;SDS011;1809;48.470;9.226;2024-03-08T11:42:44;23.60;;;14.37;;
3589;SDS011;1809;48.470;9.226;2024-03-08T11:45:14;23.87;;;15.87;;
3589;SDS011;1809;48.470;9.226;2024-03-08T11:47:46;24.40;;;15.50;;
3589;SDS011;1809;48.470;9.226;2024-03-08T11:50:12;25.67;;;15.23;;
3589;SDS011;1809;48.470;9.226;2024-03-08T11:52:38;28.57;;;15.80;;
3589;SDS011;1809;48.470;9.226;2024-03-08T11:55:04;25.20;;;15.00;;
3589;SDS011;1809;48.470;9.226;2024-03-08T11:57:30;28.03;;;16.20;;
3589;SDS011;1809;48.470;9.226;2024-03-08T11:59:57;25.17;;;15.17;;
3589;SDS011;1809;48.470;9.226;2024-03-08T12:02:30;21.70;;;14.50;;
3589;SDS011;1809;48.470;9.226;2024-03-08T12:04:56;27.33;;;15.30;;
3589;SDS011;1809;48.470;9.226;2024-03-08T12:07:25;24.13;;;14.57;;
3589;SDS011;1809;48.470;9.226;2024-03-08T12:12:46;22.30;;;13.77;;
3589;SDS011;1809;48.470;9.226;2024-03-08T12:15:17;26.63;;;15.77;;
3589;SDS011;1809;48.470;9.226;2024-03-08T12:17:48;25.33;;;15.70;;
3589;SDS011;1809;48.470;9.226;2024-03-08T12:20:21;24.30;;;15.17;;
3589;SDS011;1809;48.470;9.226;2024-03-08T12:22:49;26.33;;;15.23;;
3589;SDS011;1809;48.470;9.226;2024-03-08T12:25:17;25.70;;;16.17;;
3589;SDS011;1809;48.470;9.226;2024-03-08T12:27:43;31.00;;;16.97;;
3589;SDS011;1809;48.470;9.226;2024-03-08T12:30:24;30.97;;;18.80;;
3589;SDS011;1809;48.470;9.226;2024-03-08T12:35:26;27.33;;;17.17;;
3589;SDS011;1809;48.470;9.226;2024-03-08T12:37:53;26.00;;;16.50;;
3589;SDS011;1809;48.470;9.226;2024-03-08T12:40:30;27.27;;;16.30;;
3589;SDS011;1809;48.470;9.226;2024-03-08T12:43:00;24.13;;;15.50;;
3589;SDS011;1809;48.470;9.226;2024-03-08T12:45:27;24.60;;;16.03;;
3589;SDS011;1809;48.470;9.226;2024-03-08T12:47:53;27.67;;;15.83;;
3589;SDS011;1809;48.470;9.226;2024-03-08T12:50:19;22.40;;;15.10;;
3589;SDS011;1809;48.470;9.226;2024-03-08T12:52:46;27.90;;;15.80;;
3589;SDS011;1809;48.470;9.226;2024-03-08T12:55:13;25.30;;;16.17;;
3589;SDS011;1809;48.470;9.226;2024-03-08T12:57:39;32.77;;;18.50;;
3589;SDS011;1809;48.470;9.226;2024-03-08T13:00:04;26.10;;;16.80;;
3589;SDS011;1809;48.470;9.226;2024-03-08T13:02:31;23.93;;;15.33;;
3589;SDS011;1809;48.470;9.226;2024-03-08T13:04:57;23.57;;;16.50;;
3589;SDS011;1809;48.470;9.226;2024-03-08T13:07:23;26.93;;;16.90;;
3589;SDS011;1809;48.470;9.226;2024-03-08T13:09:53;26.33;;;16.10;;
3589;SDS011;1809;48.470;9.226;2024-03-08T13:12:20;27.37;;;16.27;;
3589;SDS011;1809;48.470;9.226;2024-03-08T13:14:46;29.03;;;16.80;;
3589;SDS011;1809;48.470;9.226;2024-03-08T13:17:12;26.37;;;16.13;;
3589;SDS011;1809;48.470;9.226;2024-03-08T13:19:39;22.20;;;14.60;;
3589;SDS011;1809;48.470;9.226;2024-03-08T13:22:04;26.87;;;15.67;;
3589;SDS011;1809;48.470;9.226;2024-03-08T13:24:30;25.30;;;15.77;;
3589;SDS011;1809;48.470;9.226;2024-03-08T13:26:55;22.80;;;15.03;;
3589;SDS011;1809;48.470;9.226;2024-03-08T13:29:21;26.30;;;15.97;;
3589;SDS011;1809;48.470;9.226;2024-03-08T13:31:48;27.67;;;15.23;;
3589;SDS011;1809;48.470;9.226;2024-03-08T13:34:16;24.27;;;15.50;;
3589;SDS011;1809;48.470;9.226;2024-03-08T13:36:52;26.80;;;14.53;;
3589;SDS011;1809;48.470;9.226;2024-03-08T13:39:19;21.70;;;14.70;;
3589;SDS011;1809;48.470;9.226;2024-03-08T13:41:46;28.70;;;14.40;;
3589;SDS011;1809;48.470;9.226;2024-03-08T13:44:11;22.77;;;14.97;;
3589;SDS011;1809;48.470;9.226;2024-03-08T13:46:37;19.23;;;13.73;;
3589;SDS011;1809;48.470;9.226;2024-03-08T13:49:03;30.33;;;14.37;;
3589;SDS011;1809;48.470;9.226;2024-03-08T13:51:33;24.70;;;14.43;;
3589;SDS011;1809;48.470;9.226;2024-03-08T13:53:58;20.70;;;13.27;;
3589;SDS011;1809;48.470;9.226;2024-03-08T13:56:25;22.40;;;14.40;;
3589;SDS011;1809;48.470;9.226;2024-03-08T13:58:51;20.10;;;13.90;;
3589;SDS011;1809;48.470;9.226;2024-03-08T14:01:16;22.60;;;13.63;;
3589;SDS011;1809;48.470;9.226;2024-03-08T14:03:42;22.33;;;15.47;;
3589;SDS011;1809;48.470;9.226;2024-03-08T14:06:07;23.73;;;14.77;;
3589;SDS011;1809;48.470;9.226;2024-03-08T14:08:34;22.43;;;14.23;;
3589;SDS011;1809;48.470;9.226;2024-03-08T14:11:02;20.37;;;12.73;;
3589;SDS011;1809;48.470;9.226;2024-03-08T14:13:35;20.47;;;13.83;;
3589;SDS011;1809;48.470;9.226;2024-03-08T14:16:01;20.80;;;13.43;;
3589;SDS011;1809;48.470;9.226;2024-03-08T14:18:26;25.00;;;14.00;;
3589;SDS011;1809;48.470;9.226;2024-03-08T14:20:54;22.40;;;13.90;;
3589;SDS011;1809;48.470;9.226;2024-03-08T14:23:19;21.87;;;14.37;;
3589;SDS011;1809;48.470;9.226;2024-03-08T14:25:45;20.53;;;13.67;;
3589;SDS011;1809;48.470;9.226;2024-03-08T14:28:11;22.43;;;13.93;;
3589;SDS011;1809;48.470;9.226;2024-03-08T14:30:37;21.53;;;13.43;;
3589;SDS011;1809;48.470;9.226;2024-03-08T14:33:06;20.30;;;13.33;;
3589;SDS011;1809;48.470;9.226;2024-03-08T14:35:34;19.80;;;13.73;;
3589;SDS011;1809;48.470;9.226;2024-03-08T14:38:00;19.47;;;12.87;;
3589;SDS011;1809;48.470;9.226;2024-03-08T14:40:25;25.93;;;14.03;;
3589;SDS011;1809;48.470;9.226;2024-03-08T14:42:51;25.20;;;15.20;;
3589;SDS011;1809;48.470;9.226;2024-03-08T14:45:17;19.53;;;12.93;;
3589;SDS011;1809;48.470;9.226;2024-03-08T14:47:48;22.27;;;12.57;;
3589;SDS011;1809;48.470;9.226;2024-03-08T14:50:17;20.27;;;13.63;;
3589;SDS011;1809;48.470;9.226;2024-03-08T14:52:43;18.47;;;12.73;;
3589;SDS011;1809;48.470;9.226;2024-03-08T14:55:08;17.80;;;12.13;;
3589;SDS011;1809;48.470;9.226;2024-03-08T14:57:38;22.73;;;14.50;;
3589;SDS011;1809;48.470;9.226;2024-03-08T15:00:04;19.10;;;12.47;;
3589;SDS011;1809;48.470;9.226;2024-03-08T15:02:32;20.70;;;13.53;;